createdAt,value
2023-04-08T00:02:05.887Z,94.07
2023-04-08T00:04:33.891Z,93.90
2023-04-08T00:07:01.666Z,93.88
2023-04-08T00:09:29.360Z,93.89
2023-04-08T00:11:57.678Z,93.46
2023-04-08T00:14:25.490Z,93.74
2023-04-08T00:16:54.939Z,93.39
2023-04-08T00:19:22.722Z,93.70
2023-04-08T00:21:51.153Z,93.83
2023-04-08T00:24:18.890Z,93.30
2023-04-08T00:26:46.633Z,93.39
2023-04-08T00:29:15.068Z,93.27
2023-04-08T00:31:42.872Z,93.22
2023-04-08T00:34:12.045Z,93.33
2023-04-08T00:36:40.161Z,92.58
2023-04-08T00:39:07.901Z,93.03
2023-04-08T00:41:36.498Z,92.95
2023-04-08T00:44:04.348Z,92.67
2023-04-08T00:46:32.515Z,92.75
2023-04-08T00:49:02.267Z,92.53
2023-04-08T00:51:32.189Z,93.02
2023-04-08T00:54:00.661Z,92.55
2023-04-08T00:56:28.916Z,92.40
2023-04-08T00:58:56.636Z,92.34
2023-04-08T01:01:33.740Z,92.40
2023-04-08T01:04:11.044Z,92.63
2023-04-08T01:06:46.892Z,92.85
2023-04-08T01:09:15.160Z,92.21
2023-04-08T01:11:45.703Z,92.27
2023-04-08T01:14:18.732Z,92.32
2023-04-08T01:16:47.620Z,92.09
2023-04-08T01:19:29.831Z,92.55
2023-04-08T01:22:06.694Z,92.49
2023-04-08T01:24:40.149Z,92.23
2023-04-08T01:27:11.630Z,92.55
2023-04-08T01:29:40.574Z,92.13
2023-04-08T01:32:09.200Z,92.26
2023-04-08T01:34:39.455Z,92.23
2023-04-08T01:37:08.388Z,92.09
2023-04-08T01:39:37.252Z,91.88
2023-04-08T01:42:05.774Z,92.12
2023-04-08T01:44:37.093Z,92.03
2023-04-08T01:47:05.202Z,91.97
2023-04-08T01:49:34.137Z,92.61
2023-04-08T01:52:02.466Z,92.29
2023-04-08T01:54:30.209Z,92.32
2023-04-08T01:56:59.602Z,92.86
2023-04-08T01:59:32.603Z,92.21
2023-04-08T02:02:03.282Z,92.54
2023-04-08T02:04:31.141Z,92.29
2023-04-08T02:06:59.424Z,92.58
2023-04-08T02:09:27.360Z,92.34
2023-04-08T02:11:56.943Z,92.19
2023-04-08T02:14:26.151Z,93.06
2023-04-08T02:16:55.981Z,92.48
2023-04-08T02:19:32.706Z,93.27
2023-04-08T02:22:10.461Z,92.72
2023-04-08T02:24:40.213Z,92.35
2023-04-08T02:27:11.519Z,92.73
2023-04-08T02:29:42.339Z,92.33
2023-04-08T02:32:15.969Z,92.13
2023-04-08T02:34:46.005Z,92.11
2023-04-08T02:37:13.824Z,92.15
2023-04-08T02:39:41.520Z,92.19
2023-04-08T02:42:11.726Z,92.47
2023-04-08T02:44:39.793Z,91.91
2023-04-08T02:47:07.548Z,92.03
2023-04-08T02:49:35.548Z,91.83
2023-04-08T02:52:04.716Z,92.40
2023-04-08T02:54:32.465Z,91.61
2023-04-08T02:57:00.191Z,91.72
2023-04-08T02:59:28.038Z,91.77
2023-04-08T03:01:55.819Z,91.48
2023-04-08T03:04:23.554Z,91.47
2023-04-08T03:06:51.353Z,91.56
2023-04-08T03:09:20.566Z,91.34
2023-04-08T03:11:53.074Z,91.72
2023-04-08T03:14:20.548Z,92.17
2023-04-08T03:16:48.784Z,91.91
2023-04-08T03:19:16.724Z,92.11
2023-04-08T03:21:44.728Z,92.23
2023-04-08T03:24:12.490Z,92.19
2023-04-08T03:26:41.564Z,92.75
2023-04-08T03:29:10.011Z,92.65
2023-04-08T03:31:38.067Z,93.27
2023-04-08T03:34:05.813Z,93.33
2023-04-08T03:36:33.731Z,93.07
2023-04-08T03:39:01.536Z,93.66
2023-04-08T03:41:29.297Z,93.77
2023-04-08T03:43:59.209Z,94.22
2023-04-08T03:46:27.062Z,94.12
2023-04-08T03:48:54.847Z,93.96
2023-04-08T03:51:22.599Z,93.85
2023-04-08T03:53:50.262Z,93.16
2023-04-08T03:56:18.096Z,93.31
2023-04-08T03:58:45.858Z,93.67
2023-04-08T04:01:15.260Z,94.03
2023-04-08T04:03:43.194Z,93.66
2023-04-08T04:06:11.163Z,94.24
2023-04-08T04:08:38.774Z,94.38
2023-04-08T04:11:07.124Z,94.75
2023-04-08T04:13:34.808Z,93.84
2023-04-08T04:16:02.540Z,93.30
2023-04-08T04:18:31.695Z,93.48
2023-04-08T04:20:59.368Z,93.21
2023-04-08T04:23:27.141Z,93.29
2023-04-08T04:25:54.799Z,93.15
2023-04-08T04:28:22.477Z,93.17
2023-04-08T04:30:50.171Z,93.00
2023-04-08T04:33:17.956Z,94.05
2023-04-08T04:35:47.157Z,93.39
2023-04-08T04:38:14.887Z,93.74
2023-04-08T04:40:42.604Z,93.46
2023-04-08T04:43:10.408Z,93.05
2023-04-08T04:45:38.068Z,91.87
2023-04-08T04:48:06.186Z,92.95
2023-04-08T04:50:34.010Z,92.48
2023-04-08T04:53:03.189Z,91.90
2023-04-08T04:55:30.954Z,92.10
2023-04-08T04:57:58.604Z,91.66
2023-04-08T05:00:26.382Z,91.75
2023-04-08T05:02:54.405Z,91.25
2023-04-08T05:05:22.301Z,91.10
2023-04-08T05:07:50.045Z,91.16
2023-04-08T05:10:19.220Z,91.33
2023-04-08T05:12:46.897Z,90.43
2023-04-08T05:15:14.675Z,90.27
2023-04-08T05:17:42.474Z,89.85
2023-04-08T05:20:10.414Z,89.89
2023-04-08T05:22:38.261Z,89.34
2023-04-08T05:25:06.786Z,89.27
2023-04-08T05:27:36.441Z,88.72
2023-04-08T05:30:04.850Z,89.14
2023-04-08T05:32:32.763Z,89.30
2023-04-08T05:35:03.463Z,89.11
2023-04-08T05:37:31.433Z,89.41
2023-04-08T05:39:59.168Z,89.36
2023-04-08T05:42:27.134Z,89.51
2023-04-08T05:44:56.491Z,89.13
2023-04-08T05:47:24.273Z,89.17
2023-04-08T05:49:52.277Z,89.05
2023-04-08T05:52:20.054Z,88.77
2023-04-08T05:54:47.875Z,88.58
2023-04-08T05:57:16.795Z,88.60
2023-04-08T05:59:45.002Z,89.23
2023-04-08T06:02:14.175Z,89.32
2023-04-08T06:04:42.305Z,89.22
2023-04-08T06:07:10.129Z,89.74
2023-04-08T06:09:38.377Z,89.50
2023-04-08T06:12:06.709Z,89.85
2023-04-08T06:14:34.476Z,89.77
2023-04-08T06:17:02.331Z,89.51
2023-04-08T06:19:31.597Z,89.94
2023-04-08T06:21:59.798Z,89.34
2023-04-08T06:24:27.766Z,90.04
2023-04-08T06:26:55.475Z,89.41
2023-04-08T06:29:23.875Z,89.47
2023-04-08T06:31:51.808Z,89.48
2023-04-08T06:34:19.547Z,89.56
2023-04-08T06:36:50.325Z,88.61
2023-04-08T06:39:19.425Z,89.08
2023-04-08T06:41:47.185Z,88.53
2023-04-08T06:44:14.951Z,88.93
2023-04-08T06:46:42.689Z,89.32
2023-04-08T06:49:10.532Z,89.52
2023-04-08T06:51:38.321Z,88.95
2023-04-08T06:54:07.456Z,88.01
2023-04-08T06:56:35.437Z,88.67
2023-04-08T06:59:03.613Z,88.97
2023-04-08T07:01:32.172Z,89.02
2023-04-08T07:04:02.216Z,88.97
2023-04-08T07:06:30.301Z,88.70
2023-04-08T07:08:58.149Z,89.24
2023-04-08T07:11:27.658Z,89.55
2023-04-08T07:13:55.476Z,88.95
2023-04-08T07:16:23.265Z,89.23
2023-04-08T07:18:51.994Z,89.39
2023-04-08T07:21:20.064Z,88.26
2023-04-08T07:23:47.961Z,87.97
2023-04-08T07:26:15.758Z,87.63
2023-04-08T07:28:45.131Z,87.58
2023-04-08T07:31:14.647Z,88.48
2023-04-08T07:33:42.555Z,88.19
2023-04-08T07:36:11.518Z,87.68
2023-04-08T07:38:39.553Z,87.30
2023-04-08T07:41:07.437Z,87.44
2023-04-08T07:43:37.159Z,86.59
2023-04-08T07:46:09.100Z,86.73
2023-04-08T07:48:37.462Z,85.97
2023-04-08T07:51:08.030Z,85.11
2023-04-08T07:53:38.792Z,84.95
2023-04-08T07:56:12.818Z,84.25
2023-04-08T07:58:41.490Z,83.94
2023-04-08T08:01:18.903Z,82.84
2023-04-08T08:03:48.011Z,82.43
2023-04-08T08:06:16.584Z,84.09
2023-04-08T08:08:44.530Z,83.86
2023-04-08T08:11:12.424Z,82.92
2023-04-08T08:13:40.474Z,83.88
2023-04-08T08:16:11.432Z,84.15
2023-04-08T08:18:41.608Z,84.26
2023-04-08T08:21:10.152Z,83.23
2023-04-08T08:23:38.546Z,82.41
2023-04-08T08:26:07.685Z,83.13
2023-04-08T08:28:35.631Z,81.68
2023-04-08T08:31:03.440Z,80.62
2023-04-08T08:33:31.281Z,79.03
2023-04-08T08:36:00.509Z,78.98
2023-04-08T08:38:32.155Z,77.59
2023-04-08T08:41:00.913Z,78.15
2023-04-08T08:43:30.323Z,77.85
2023-04-08T08:45:58.138Z,77.95
2023-04-08T08:48:26.054Z,77.37
2023-04-08T08:50:53.986Z,77.18
2023-04-08T08:53:32.743Z,76.95
2023-04-08T08:58:33.039Z,76.86
2023-04-08T09:01:01.088Z,76.10
2023-04-08T09:03:30.224Z,76.95
2023-04-08T09:06:00.108Z,75.88
2023-04-08T09:08:32.284Z,75.51
2023-04-08T09:11:13.488Z,76.15
2023-04-08T09:13:41.713Z,75.60
2023-04-08T09:16:10.987Z,76.21
2023-04-08T09:18:39.970Z,75.38
2023-04-08T09:21:08.637Z,74.60
2023-04-08T09:23:43.359Z,74.79
2023-04-08T09:26:13.146Z,73.89
2023-04-08T09:28:42.380Z,74.35
2023-04-08T09:31:21.690Z,74.28
2023-04-08T09:33:50.384Z,73.03
2023-04-08T09:36:18.609Z,73.79
2023-04-08T09:38:49.057Z,74.65
2023-04-08T09:41:18.168Z,75.28
2023-04-08T09:43:50.606Z,75.08
2023-04-08T09:46:23.384Z,73.79
2023-04-08T09:48:52.279Z,73.67
2023-04-08T09:51:21.363Z,73.85
2023-04-08T09:53:57.587Z,74.03
2023-04-08T09:56:28.754Z,73.49
2023-04-08T09:59:00.862Z,73.22
2023-04-08T10:01:34.571Z,72.78
2023-04-08T10:04:06.482Z,69.63
2023-04-08T10:06:35.882Z,69.82
2023-04-08T10:09:05.924Z,68.93
2023-04-08T10:11:36.430Z,67.89
2023-04-08T10:14:04.517Z,67.40
2023-04-08T10:16:32.300Z,66.55
2023-04-08T10:19:00.156Z,66.85
2023-04-08T10:21:35.621Z,65.66
2023-04-08T10:24:08.136Z,64.41
2023-04-08T10:26:37.223Z,65.09
2023-04-08T10:29:33.350Z,63.67
2023-04-08T10:32:02.850Z,64.04
2023-04-08T10:34:30.924Z,64.02
2023-04-08T10:37:03.750Z,63.62
2023-04-08T10:39:33.468Z,62.24
2023-04-08T10:42:02.818Z,63.91
2023-04-08T10:44:30.709Z,63.72
2023-04-08T10:46:58.520Z,63.82
2023-04-08T10:49:33.743Z,63.93
2023-04-08T10:52:02.084Z,64.19
2023-04-08T10:54:29.893Z,64.32
2023-04-08T10:56:59.949Z,63.85
2023-04-08T10:59:32.919Z,64.63
2023-04-08T11:02:01.522Z,65.84
2023-04-08T11:04:29.596Z,66.46
2023-04-08T11:06:58.401Z,66.30
2023-04-08T11:09:26.310Z,66.52
2023-04-08T11:11:55.025Z,65.17
2023-04-08T11:14:25.381Z,65.04
2023-04-08T11:16:53.382Z,63.47
2023-04-08T11:19:21.466Z,63.94
2023-04-08T11:21:49.511Z,64.86
2023-04-08T11:24:17.619Z,64.95
2023-04-08T11:26:45.799Z,64.03
2023-04-08T11:29:15.218Z,62.43
2023-04-08T11:31:44.915Z,61.16
2023-04-08T11:34:12.928Z,60.95
2023-04-08T11:36:41.951Z,60.87
2023-04-08T11:39:13.013Z,61.76
2023-04-08T11:41:41.389Z,60.75
2023-04-08T11:44:09.898Z,61.56
2023-04-08T11:46:42.452Z,61.81
2023-04-08T11:49:15.921Z,61.23
2023-04-08T11:51:56.439Z,60.25
2023-04-08T11:54:28.888Z,61.18
2023-04-08T11:56:58.495Z,60.51
2023-04-08T11:59:28.976Z,60.88
2023-04-08T12:01:57.742Z,59.51
2023-04-08T12:04:27.254Z,60.69
2023-04-08T12:06:56.852Z,60.94
2023-04-08T12:09:25.986Z,59.02
2023-04-08T12:11:53.710Z,58.96
2023-04-08T12:14:26.805Z,59.02
2023-04-08T12:16:56.160Z,59.28
2023-04-08T12:19:23.951Z,59.19
2023-04-08T12:21:53.221Z,60.12
2023-04-08T12:24:21.542Z,59.33
2023-04-08T12:26:49.411Z,60.00
2023-04-08T12:29:17.252Z,59.71
2023-04-08T12:31:45.585Z,59.69
2023-04-08T12:34:13.597Z,59.82
2023-04-08T12:36:41.912Z,59.70
2023-04-08T12:39:11.331Z,59.82
2023-04-08T12:41:39.098Z,60.58
2023-04-08T12:44:07.001Z,59.63
2023-04-08T12:46:34.989Z,59.29
2023-04-08T12:49:05.113Z,59.68
2023-04-08T12:51:33.774Z,59.69
2023-04-08T12:54:02.065Z,59.37
2023-04-08T12:56:31.594Z,59.82
2023-04-08T12:58:59.949Z,60.02
2023-04-08T13:01:28.264Z,59.72
2023-04-08T13:03:57.137Z,60.21
2023-04-08T13:06:25.994Z,60.30
2023-04-08T13:08:53.938Z,60.26
2023-04-08T13:11:22.585Z,60.88
2023-04-08T13:13:52.289Z,60.74
2023-04-08T13:16:20.512Z,60.88
2023-04-08T13:18:48.373Z,61.61
2023-04-08T13:21:16.566Z,61.13
2023-04-08T13:23:44.420Z,61.24
2023-04-08T13:26:12.480Z,61.23
2023-04-08T13:28:53.651Z,62.19
2023-04-08T13:31:25.949Z,62.98
2023-04-08T13:33:56.980Z,62.39
2023-04-08T13:36:26.008Z,62.19
2023-04-08T13:38:53.849Z,62.59
2023-04-08T13:41:22.142Z,61.76
2023-04-08T13:43:50.506Z,61.47
2023-04-08T13:46:18.754Z,61.64
2023-04-08T13:48:47.983Z,62.24
2023-04-08T13:51:16.353Z,62.30
2023-04-08T13:53:44.129Z,62.15
2023-04-08T13:56:14.160Z,61.52
2023-04-08T13:58:41.995Z,61.76
2023-04-08T14:01:09.953Z,62.36
2023-04-08T14:03:38.034Z,62.63
2023-04-08T14:06:07.958Z,62.46
2023-04-08T14:08:36.465Z,61.65
2023-04-08T14:11:04.356Z,62.60
2023-04-08T14:13:33.052Z,63.15
2023-04-08T14:16:02.306Z,63.10
2023-04-08T14:18:30.162Z,63.61
2023-04-08T14:20:58.096Z,64.42
2023-04-08T14:23:27.274Z,64.10
2023-04-08T14:25:55.028Z,63.32
2023-04-08T14:28:22.690Z,64.02
2023-04-08T14:30:50.695Z,64.06
2023-04-08T14:33:18.979Z,64.47
2023-04-08T14:35:47.827Z,64.58
2023-04-08T14:38:15.807Z,64.96
2023-04-08T14:40:45.051Z,65.18
2023-04-08T14:43:13.540Z,64.92
2023-04-08T14:45:42.364Z,65.00
2023-04-08T14:48:10.339Z,65.29
2023-04-08T14:50:38.301Z,65.31
2023-04-08T14:53:06.206Z,65.63
2023-04-08T14:55:34.037Z,66.48
2023-04-08T14:58:03.248Z,66.31
2023-04-08T15:00:31.101Z,66.49
2023-04-08T15:02:59.206Z,66.57
2023-04-08T15:05:27.598Z,66.70
2023-04-08T15:07:55.498Z,66.91
2023-04-08T15:10:23.400Z,67.09
2023-04-08T15:12:51.210Z,66.88
2023-04-08T15:15:20.647Z,66.48
2023-04-08T15:17:51.000Z,66.76
2023-04-08T15:20:20.229Z,66.31
2023-04-08T15:22:48.118Z,66.59
2023-04-08T15:25:16.119Z,66.58
2023-04-08T15:27:44.058Z,67.19
2023-04-08T15:30:12.602Z,67.24
2023-04-08T15:32:42.448Z,67.62
2023-04-08T15:35:11.099Z,67.52
2023-04-08T15:37:38.849Z,66.94
2023-04-08T15:40:08.215Z,66.69
2023-04-08T15:42:36.696Z,66.67
2023-04-08T15:45:05.308Z,66.80
2023-04-08T15:47:34.405Z,66.33
2023-04-08T15:50:03.724Z,67.26
2023-04-08T15:52:35.314Z,67.33
2023-04-08T15:55:03.642Z,66.42
2023-04-08T15:57:32.536Z,66.58
2023-04-08T16:00:00.526Z,66.85
2023-04-08T16:02:28.678Z,67.02
2023-04-08T16:04:56.621Z,67.06
2023-04-08T16:07:25.889Z,66.97
2023-04-08T16:09:53.727Z,67.31
2023-04-08T16:12:22.000Z,66.90
2023-04-08T16:14:49.834Z,66.99
2023-04-08T16:17:18.071Z,67.27
2023-04-08T16:19:46.102Z,67.13
2023-04-08T16:22:14.036Z,67.49
2023-04-08T16:24:43.253Z,67.58
2023-04-08T16:27:11.743Z,66.83
2023-04-08T16:29:39.771Z,66.80
2023-04-08T16:32:08.917Z,66.54
2023-04-08T16:34:39.771Z,66.80
2023-04-08T16:37:07.694Z,66.85
2023-04-08T16:39:35.765Z,67.17
2023-04-08T16:42:05.281Z,67.35
2023-04-08T16:44:33.568Z,67.26
2023-04-08T16:47:01.650Z,67.01
2023-04-08T16:49:29.466Z,66.92
2023-04-08T16:51:57.745Z,67.00
2023-04-08T16:54:25.649Z,67.48
2023-04-08T16:56:53.380Z,67.52
2023-04-08T16:59:23.088Z,67.70
2023-04-08T17:01:54.429Z,67.61
2023-04-08T17:04:22.268Z,67.58
2023-04-08T17:06:50.225Z,67.94
2023-04-08T17:09:18.168Z,67.87
2023-04-08T17:11:46.040Z,68.05
2023-04-08T17:14:13.866Z,67.93
2023-04-08T17:16:43.114Z,68.13
2023-04-08T17:19:13.215Z,68.68
2023-04-08T17:21:42.693Z,68.76
2023-04-08T17:24:18.032Z,68.98
2023-04-08T17:26:46.860Z,69.30
2023-04-08T17:29:14.728Z,69.02
2023-04-08T17:31:44.667Z,69.24
2023-04-08T17:34:12.665Z,68.86
2023-04-08T17:36:40.525Z,68.04
2023-04-08T17:39:08.361Z,68.82
2023-04-08T17:41:40.440Z,68.76
2023-04-08T17:44:08.969Z,68.93
2023-04-08T17:46:37.034Z,69.25
2023-04-08T17:49:06.264Z,69.00
2023-04-08T17:51:34.322Z,69.21
2023-04-08T17:54:02.276Z,69.28
2023-04-08T17:56:33.449Z,69.15
2023-04-08T17:59:06.212Z,69.81
2023-04-08T18:01:34.486Z,69.38
2023-04-08T18:04:02.609Z,69.33
2023-04-08T18:06:32.534Z,69.44
2023-04-08T18:09:00.770Z,69.38
2023-04-08T18:11:28.644Z,69.54
2023-04-08T18:13:56.563Z,69.74
2023-04-08T18:16:24.521Z,69.84
2023-04-08T18:18:52.375Z,70.10
2023-04-08T18:21:21.927Z,70.27
2023-04-08T18:23:52.165Z,70.18
2023-04-08T18:26:20.168Z,70.60
2023-04-08T18:28:47.950Z,70.39
2023-04-08T18:31:15.729Z,70.24
2023-04-08T18:33:43.678Z,70.45
2023-04-08T18:36:13.888Z,70.92
2023-04-08T18:38:41.864Z,70.64
2023-04-08T18:41:14.439Z,70.79
2023-04-08T18:43:42.237Z,71.12
2023-04-08T18:46:10.137Z,70.93
2023-04-08T18:48:38.264Z,71.16
2023-04-08T18:51:06.398Z,71.46
2023-04-08T18:53:34.113Z,71.40
2023-04-08T18:56:02.025Z,71.38
2023-04-08T18:58:31.887Z,71.62
2023-04-08T19:00:59.650Z,71.80
2023-04-08T19:03:27.480Z,71.77
2023-04-08T19:05:55.489Z,72.01
2023-04-08T19:08:23.299Z,72.12
2023-04-08T19:10:51.482Z,71.99
2023-04-08T19:13:19.259Z,72.06
2023-04-08T19:15:48.488Z,71.94
2023-04-08T19:18:16.253Z,72.29
2023-04-08T19:20:44.143Z,72.40
2023-04-08T19:23:12.027Z,72.40
2023-04-08T19:25:39.837Z,72.39
2023-04-08T19:28:09.144Z,72.40
2023-04-08T19:30:38.635Z,72.74
2023-04-08T19:33:08.873Z,72.78
2023-04-08T19:35:36.827Z,73.13
2023-04-08T19:38:05.665Z,72.72
2023-04-08T19:40:34.179Z,72.87
2023-04-08T19:43:02.067Z,72.91
2023-04-08T19:45:29.832Z,72.46
2023-04-08T19:47:57.977Z,72.48
2023-04-08T19:50:27.956Z,72.58
2023-04-08T19:52:55.792Z,72.64
2023-04-08T19:55:23.818Z,72.70
2023-04-08T19:57:52.728Z,72.61
2023-04-08T20:00:20.532Z,72.53
2023-04-08T20:02:48.613Z,72.41
2023-04-08T20:05:17.661Z,72.57
2023-04-08T20:07:49.649Z,72.55
2023-04-08T20:10:17.607Z,72.87
2023-04-08T20:12:45.350Z,73.32
2023-04-08T20:15:23.559Z,73.03
2023-04-08T20:17:52.814Z,73.32
2023-04-08T20:20:21.545Z,73.32
2023-04-08T20:22:50.799Z,73.54
2023-04-08T20:25:18.683Z,73.08
2023-04-08T20:27:46.478Z,73.35
2023-04-08T20:30:14.352Z,73.38
2023-04-08T20:32:42.080Z,73.42
2023-04-08T20:35:10.939Z,73.59
2023-04-08T20:37:38.951Z,73.37
2023-04-08T20:40:13.671Z,74.04
2023-04-08T20:42:41.752Z,73.62
2023-04-08T20:45:11.027Z,73.76
2023-04-08T20:47:39.244Z,73.63
2023-04-08T20:50:08.962Z,73.46
2023-04-08T20:52:36.803Z,74.03
2023-04-08T20:55:05.159Z,73.53
2023-04-08T20:57:34.441Z,73.98
2023-04-08T21:00:06.370Z,73.74
2023-04-08T21:02:34.701Z,73.59
2023-04-08T21:05:02.614Z,74.18
2023-04-08T21:07:30.794Z,74.02
2023-04-08T21:09:58.475Z,73.62
2023-04-08T21:12:26.250Z,73.98
2023-04-08T21:14:55.410Z,73.80
2023-04-08T21:17:23.153Z,74.34
2023-04-08T21:19:50.917Z,74.72
2023-04-08T21:22:18.694Z,74.63
2023-04-08T21:24:46.399Z,74.64
2023-04-08T21:27:14.156Z,74.64
2023-04-08T21:29:41.918Z,74.37
2023-04-08T21:32:11.178Z,74.36
2023-04-08T21:34:38.896Z,74.71
2023-04-08T21:37:07.198Z,74.67
2023-04-08T21:39:34.951Z,74.51
2023-04-08T21:42:02.783Z,74.67
2023-04-08T21:44:30.860Z,74.46
2023-04-08T21:47:00.466Z,75.06
2023-04-08T21:49:31.602Z,74.68
2023-04-08T21:51:59.419Z,75.18
2023-04-08T21:54:27.218Z,75.18
2023-04-08T21:56:55.131Z,75.09
2023-04-08T21:59:22.859Z,75.29
2023-04-08T22:01:50.843Z,75.07
2023-04-08T22:04:19.610Z,74.50
2023-04-08T22:06:49.796Z,74.07
2023-04-08T22:09:17.683Z,74.50
2023-04-08T22:11:45.606Z,73.92
2023-04-08T22:14:13.553Z,74.21
2023-04-08T22:16:44.735Z,74.11
2023-04-08T22:19:12.461Z,74.29
2023-04-08T22:21:40.608Z,73.99
2023-04-08T22:24:09.791Z,74.07
2023-04-08T22:26:37.879Z,73.74
2023-04-08T22:29:05.684Z,74.55
2023-04-08T22:31:33.411Z,74.56
2023-04-08T22:34:01.137Z,74.36
2023-04-08T22:36:28.886Z,74.84
2023-04-08T22:38:56.643Z,74.66
2023-04-08T22:41:25.732Z,75.26
2023-04-08T22:43:53.417Z,75.30
2023-04-08T22:46:21.315Z,74.93
2023-04-08T22:48:49.836Z,75.12
2023-04-08T22:51:17.824Z,75.62
2023-04-08T22:53:45.530Z,75.36
2023-04-08T22:56:13.254Z,75.81
2023-04-08T22:58:42.448Z,75.87
2023-04-08T23:01:17.002Z,75.73
2023-04-08T23:03:45.518Z,76.04
2023-04-08T23:06:13.266Z,75.96
2023-04-08T23:08:41.707Z,76.33
2023-04-08T23:11:09.557Z,76.63
2023-04-08T23:13:37.617Z,77.00
2023-04-08T23:16:07.303Z,77.20
2023-04-08T23:18:35.374Z,77.09
2023-04-08T23:21:03.884Z,77.25
2023-04-08T23:23:31.585Z,77.42
2023-04-08T23:25:59.341Z,77.21
2023-04-08T23:28:27.031Z,77.63
2023-04-08T23:30:54.944Z,77.87
2023-04-08T23:33:24.053Z,77.94
2023-04-08T23:35:51.822Z,77.63
2023-04-08T23:38:19.502Z,77.57
2023-04-08T23:40:47.162Z,77.65
2023-04-08T23:43:14.924Z,77.85
2023-04-08T23:45:42.627Z,77.87
2023-04-08T23:48:10.444Z,78.25
2023-04-08T23:50:39.549Z,78.38
2023-04-08T23:53:07.268Z,78.23
2023-04-08T23:55:34.948Z,78.42
2023-04-08T23:58:02.906Z,78.20
